sensor_id;sensor_type;location;lat;lon;timestamp;P1;durP1;ratioP1;P2;durP2;ratioP2
68888;SDS011;55930;47.412;8.790;2022-12-18T00:03:03;42.57;;;24.27;;
68888;SDS011;55930;47.412;8.790;2022-12-18T00:06:24;40.67;;;22.20;;
68888;SDS011;55930;47.412;8.790;2022-12-18T00:09:46;42.97;;;23.73;;
68888;SDS011;55930;47.412;8.790;2022-12-18T00:13:06;43.37;;;23.33;;
68888;SDS011;55930;47.412;8.790;2022-12-18T00:16:27;44.17;;;24.53;;
68888;SDS011;55930;47.412;8.790;2022-12-18T00:19:52;43.83;;;23.75;;
68888;SDS011;55930;47.412;8.790;2022-12-18T00:23:15;40.67;;;23.73;;
68888;SDS011;55930;47.412;8.790;2022-12-18T00:26:36;42.20;;;23.50;;
68888;SDS011;55930;47.412;8.790;2022-12-18T00:29:59;47.67;;;24.92;;
68888;SDS011;55930;47.412;8.790;2022-12-18T00:33:20;49.30;;;25.90;;
68888;SDS011;55930;47.412;8.790;2022-12-18T00:36:40;42.20;;;24.40;;
68888;SDS011;55930;47.412;8.790;2022-12-18T00:40:02;47.47;;;26.02;;
68888;SDS011;55930;47.412;8.790;2022-12-18T00:43:23;48.78;;;24.85;;
68888;SDS011;55930;47.412;8.790;2022-12-18T00:46:44;48.83;;;26.27;;
68888;SDS011;55930;47.412;8.790;2022-12-18T00:50:06;43.50;;;22.83;;
68888;SDS011;55930;47.412;8.790;2022-12-18T00:53:27;50.47;;;26.73;;
68888;SDS011;55930;47.412;8.790;2022-12-18T00:56:47;47.60;;;25.23;;
68888;SDS011;55930;47.412;8.790;2022-12-18T01:00:09;49.13;;;25.50;;
68888;SDS011;55930;47.412;8.790;2022-12-18T01:03:32;40.35;;;24.05;;
68888;SDS011;55930;47.412;8.790;2022-12-18T01:06:53;39.87;;;22.93;;
68888;SDS011;55930;47.412;8.790;2022-12-18T01:10:13;44.97;;;24.03;;
68888;SDS011;55930;47.412;8.790;2022-12-18T01:13:34;44.77;;;22.63;;
68888;SDS011;55930;47.412;8.790;2022-12-18T01:16:54;41.77;;;23.57;;
68888;SDS011;55930;47.412;8.790;2022-12-18T01:20:15;42.70;;;23.37;;
68888;SDS011;55930;47.412;8.790;2022-12-18T01:23:38;41.00;;;22.13;;
68888;SDS011;55930;47.412;8.790;2022-12-18T01:27:05;44.67;;;24.25;;
68888;SDS011;55930;47.412;8.790;2022-12-18T01:30:25;39.60;;;24.00;;
68888;SDS011;55930;47.412;8.790;2022-12-18T01:33:46;45.93;;;25.73;;
68888;SDS011;55930;47.412;8.790;2022-12-18T01:37:06;43.37;;;22.67;;
68888;SDS011;55930;47.412;8.790;2022-12-18T01:40:29;41.55;;;23.25;;
68888;SDS011;55930;47.412;8.790;2022-12-18T01:43:51;45.63;;;24.73;;
68888;SDS011;55930;47.412;8.790;2022-12-18T01:47:38;48.72;;;25.90;;
68888;SDS011;55930;47.412;8.790;2022-12-18T01:50:57;47.42;;;27.10;;
68888;SDS011;55930;47.412;8.790;2022-12-18T01:54:18;44.00;;;24.37;;
68888;SDS011;55930;47.412;8.790;2022-12-18T01:57:40;43.78;;;22.85;;
68888;SDS011;55930;47.412;8.790;2022-12-18T02:01:01;43.92;;;24.15;;
68888;SDS011;55930;47.412;8.790;2022-12-18T02:04:23;39.57;;;20.97;;
68888;SDS011;55930;47.412;8.790;2022-12-18T02:14:45;41.15;;;24.23;;
68888;SDS011;55930;47.412;8.790;2022-12-18T02:18:08;45.08;;;24.50;;
68888;SDS011;55930;47.412;8.790;2022-12-18T02:28:45;40.83;;;22.75;;
68888;SDS011;55930;47.412;8.790;2022-12-18T02:32:17;43.25;;;24.50;;
68888;SDS011;55930;47.412;8.790;2022-12-18T02:39:05;44.13;;;22.33;;
68888;SDS011;55930;47.412;8.790;2022-12-18T02:42:28;40.95;;;22.95;;
68888;SDS011;55930;47.412;8.790;2022-12-18T02:45:52;43.43;;;22.70;;
68888;SDS011;55930;47.412;8.790;2022-12-18T02:49:34;44.28;;;23.92;;
68888;SDS011;55930;47.412;8.790;2022-12-18T02:56:33;44.10;;;23.85;;
68888;SDS011;55930;47.412;8.790;2022-12-18T03:04:04;40.95;;;22.17;;
68888;SDS011;55930;47.412;8.790;2022-12-18T03:07:36;46.55;;;24.27;;
68888;SDS011;55930;47.412;8.790;2022-12-18T03:11:09;41.33;;;21.45;;
68888;SDS011;55930;47.412;8.790;2022-12-18T03:14:31;39.10;;;22.10;;
68888;SDS011;55930;47.412;8.790;2022-12-18T03:17:59;43.60;;;23.27;;
68888;SDS011;55930;47.412;8.790;2022-12-18T03:21:28;42.05;;;23.98;;
68888;SDS011;55930;47.412;8.790;2022-12-18T03:24:54;44.35;;;23.85;;
68888;SDS011;55930;47.412;8.790;2022-12-18T03:28:20;41.05;;;23.17;;
68888;SDS011;55930;47.412;8.790;2022-12-18T03:31:42;42.42;;;23.30;;
68888;SDS011;55930;47.412;8.790;2022-12-18T03:35:10;41.90;;;24.80;;
68888;SDS011;55930;47.412;8.790;2022-12-18T03:38:33;43.00;;;22.70;;
68888;SDS011;55930;47.412;8.790;2022-12-18T03:45:37;37.53;;;20.98;;
68888;SDS011;55930;47.412;8.790;2022-12-18T03:49:07;39.63;;;21.40;;
68888;SDS011;55930;47.412;8.790;2022-12-18T03:56:05;39.72;;;22.40;;
68888;SDS011;55930;47.412;8.790;2022-12-18T03:59:28;41.60;;;22.85;;
68888;SDS011;55930;47.412;8.790;2022-12-18T04:02:54;40.28;;;21.75;;
68888;SDS011;55930;47.412;8.790;2022-12-18T04:06:16;41.03;;;22.15;;
68888;SDS011;55930;47.412;8.790;2022-12-18T04:09:38;34.53;;;19.45;;
68888;SDS011;55930;47.412;8.790;2022-12-18T04:12:59;40.38;;;22.67;;
68888;SDS011;55930;47.412;8.790;2022-12-18T04:16:20;39.50;;;21.43;;
68888;SDS011;55930;47.412;8.790;2022-12-18T04:19:40;39.40;;;21.33;;
68888;SDS011;55930;47.412;8.790;2022-12-18T04:23:03;41.55;;;22.23;;
68888;SDS011;55930;47.412;8.790;2022-12-18T04:26:24;44.90;;;24.47;;
68888;SDS011;55930;47.412;8.790;2022-12-18T04:29:44;38.90;;;21.70;;
68888;SDS011;55930;47.412;8.790;2022-12-18T04:33:11;40.60;;;21.10;;
68888;SDS011;55930;47.412;8.790;2022-12-18T04:36:35;44.20;;;23.33;;
68888;SDS011;55930;47.412;8.790;2022-12-18T04:39:58;37.30;;;19.98;;
68888;SDS011;55930;47.412;8.790;2022-12-18T04:43:19;44.83;;;23.15;;
68888;SDS011;55930;47.412;8.790;2022-12-18T04:46:39;40.33;;;22.83;;
68888;SDS011;55930;47.412;8.790;2022-12-18T04:50:00;42.93;;;23.77;;
68888;SDS011;55930;47.412;8.790;2022-12-18T04:53:20;43.33;;;22.43;;
68888;SDS011;55930;47.412;8.790;2022-12-18T04:56:43;40.38;;;22.58;;
68888;SDS011;55930;47.412;8.790;2022-12-18T05:00:04;38.80;;;21.53;;
68888;SDS011;55930;47.412;8.790;2022-12-18T05:03:26;38.05;;;20.92;;
68888;SDS011;55930;47.412;8.790;2022-12-18T05:06:46;39.40;;;23.33;;
68888;SDS011;55930;47.412;8.790;2022-12-18T05:10:09;32.70;;;17.77;;
68888;SDS011;55930;47.412;8.790;2022-12-18T05:13:30;42.45;;;22.40;;
68888;SDS011;55930;47.412;8.790;2022-12-18T05:16:51;47.78;;;23.27;;
68888;SDS011;55930;47.412;8.790;2022-12-18T05:20:11;45.67;;;23.73;;
68888;SDS011;55930;47.412;8.790;2022-12-18T05:23:31;41.00;;;22.47;;
68888;SDS011;55930;47.412;8.790;2022-12-18T05:26:55;45.47;;;23.27;;
68888;SDS011;55930;47.412;8.790;2022-12-18T05:30:17;44.27;;;23.67;;
68888;SDS011;55930;47.412;8.790;2022-12-18T05:33:37;40.78;;;22.75;;
68888;SDS011;55930;47.412;8.790;2022-12-18T05:37:17;44.35;;;23.70;;
68888;SDS011;55930;47.412;8.790;2022-12-18T05:40:37;32.57;;;18.20;;
68888;SDS011;55930;47.412;8.790;2022-12-18T05:44:02;52.53;;;27.40;;
68888;SDS011;55930;47.412;8.790;2022-12-18T05:47:22;48.97;;;26.97;;
68888;SDS011;55930;47.412;8.790;2022-12-18T05:50:44;47.23;;;27.37;;
68888;SDS011;55930;47.412;8.790;2022-12-18T05:54:06;46.05;;;26.05;;
68888;SDS011;55930;47.412;8.790;2022-12-18T05:57:26;43.37;;;23.13;;
68888;SDS011;55930;47.412;8.790;2022-12-18T06:00:46;44.10;;;26.10;;
68888;SDS011;55930;47.412;8.790;2022-12-18T06:04:07;45.20;;;25.83;;
68888;SDS011;55930;47.412;8.790;2022-12-18T06:07:27;47.53;;;25.60;;
68888;SDS011;55930;47.412;8.790;2022-12-18T06:10:51;48.33;;;27.30;;
68888;SDS011;55930;47.412;8.790;2022-12-18T06:14:12;51.17;;;29.65;;
68888;SDS011;55930;47.412;8.790;2022-12-18T06:17:33;48.30;;;29.43;;
68888;SDS011;55930;47.412;8.790;2022-12-18T06:20:57;42.97;;;27.27;;
68888;SDS011;55930;47.412;8.790;2022-12-18T06:24:18;45.38;;;25.52;;
68888;SDS011;55930;47.412;8.790;2022-12-18T06:27:39;40.30;;;24.03;;
68888;SDS011;55930;47.412;8.790;2022-12-18T06:30:59;45.83;;;26.77;;
68888;SDS011;55930;47.412;8.790;2022-12-18T06:34:20;58.37;;;31.30;;
68888;SDS011;55930;47.412;8.790;2022-12-18T06:37:40;52.50;;;30.10;;
68888;SDS011;55930;47.412;8.790;2022-12-18T06:41:05;53.53;;;29.83;;
68888;SDS011;55930;47.412;8.790;2022-12-18T06:44:27;59.78;;;31.80;;
68888;SDS011;55930;47.412;8.790;2022-12-18T06:47:48;76.47;;;38.33;;
68888;SDS011;55930;47.412;8.790;2022-12-18T06:51:08;66.60;;;37.13;;
68888;SDS011;55930;47.412;8.790;2022-12-18T06:54:29;57.43;;;32.87;;
68888;SDS011;55930;47.412;8.790;2022-12-18T06:57:49;54.23;;;30.27;;
68888;SDS011;55930;47.412;8.790;2022-12-18T07:01:10;56.47;;;31.50;;
68888;SDS011;55930;47.412;8.790;2022-12-18T07:04:31;51.47;;;29.30;;
68888;SDS011;55930;47.412;8.790;2022-12-18T07:07:52;52.30;;;29.97;;
68888;SDS011;55930;47.412;8.790;2022-12-18T07:11:12;53.43;;;29.27;;
68888;SDS011;55930;47.412;8.790;2022-12-18T07:14:33;56.13;;;29.83;;
68888;SDS011;55930;47.412;8.790;2022-12-18T07:17:54;52.80;;;30.10;;
68888;SDS011;55930;47.412;8.790;2022-12-18T07:21:18;51.53;;;27.83;;
68888;SDS011;55930;47.412;8.790;2022-12-18T07:24:39;50.35;;;30.38;;
68888;SDS011;55930;47.412;8.790;2022-12-18T07:28:00;48.63;;;26.60;;
68888;SDS011;55930;47.412;8.790;2022-12-18T07:31:21;49.50;;;29.30;;
68888;SDS011;55930;47.412;8.790;2022-12-18T07:34:42;53.42;;;31.48;;
68888;SDS011;55930;47.412;8.790;2022-12-18T07:38:05;57.67;;;31.33;;
68888;SDS011;55930;47.412;8.790;2022-12-18T07:41:26;70.47;;;36.85;;
68888;SDS011;55930;47.412;8.790;2022-12-18T07:44:46;77.00;;;38.20;;
68888;SDS011;55930;47.412;8.790;2022-12-18T07:48:06;66.47;;;36.17;;
68888;SDS011;55930;47.412;8.790;2022-12-18T07:51:44;71.18;;;37.03;;
68888;SDS011;55930;47.412;8.790;2022-12-18T07:55:09;75.97;;;37.88;;
68888;SDS011;55930;47.412;8.790;2022-12-18T07:58:33;72.90;;;37.58;;
68888;SDS011;55930;47.412;8.790;2022-12-18T08:02:02;77.07;;;41.58;;
68888;SDS011;55930;47.412;8.790;2022-12-18T08:05:26;65.05;;;35.67;;
68888;SDS011;55930;47.412;8.790;2022-12-18T08:08:46;56.83;;;30.63;;
68888;SDS011;55930;47.412;8.790;2022-12-18T08:12:14;55.83;;;29.83;;
68888;SDS011;55930;47.412;8.790;2022-12-18T08:15:40;57.45;;;30.85;;
68888;SDS011;55930;47.412;8.790;2022-12-18T08:19:01;48.10;;;27.27;;
68888;SDS011;55930;47.412;8.790;2022-12-18T08:22:22;50.55;;;28.35;;
68888;SDS011;55930;47.412;8.790;2022-12-18T08:25:42;50.03;;;29.80;;
68888;SDS011;55930;47.412;8.790;2022-12-18T08:29:04;46.03;;;26.60;;
68888;SDS011;55930;47.412;8.790;2022-12-18T08:32:26;50.50;;;27.73;;
68888;SDS011;55930;47.412;8.790;2022-12-18T08:35:48;50.63;;;29.80;;
68888;SDS011;55930;47.412;8.790;2022-12-18T08:39:08;51.50;;;29.90;;
68888;SDS011;55930;47.412;8.790;2022-12-18T08:42:48;49.42;;;28.33;;
68888;SDS011;55930;47.412;8.790;2022-12-18T08:46:40;46.97;;;27.55;;
68888;SDS011;55930;47.412;8.790;2022-12-18T08:50:02;47.88;;;27.15;;
68888;SDS011;55930;47.412;8.790;2022-12-18T08:53:24;48.77;;;27.30;;
68888;SDS011;55930;47.412;8.790;2022-12-18T08:57:05;64.00;;;36.30;;
68888;SDS011;55930;47.412;8.790;2022-12-18T09:00:26;46.63;;;25.30;;
68888;SDS011;55930;47.412;8.790;2022-12-18T09:03:48;45.40;;;26.97;;
68888;SDS011;55930;47.412;8.790;2022-12-18T09:07:09;48.90;;;27.10;;
68888;SDS011;55930;47.412;8.790;2022-12-18T09:10:29;40.60;;;25.00;;
68888;SDS011;55930;47.412;8.790;2022-12-18T09:13:50;43.53;;;25.67;;
68888;SDS011;55930;47.412;8.790;2022-12-18T09:17:10;47.07;;;27.87;;
68888;SDS011;55930;47.412;8.790;2022-12-18T09:20:31;49.33;;;27.73;;
68888;SDS011;55930;47.412;8.790;2022-12-18T09:23:53;46.00;;;25.55;;
68888;SDS011;55930;47.412;8.790;2022-12-18T09:27:14;45.65;;;27.90;;
68888;SDS011;55930;47.412;8.790;2022-12-18T09:30:38;42.55;;;25.88;;
68888;SDS011;55930;47.412;8.790;2022-12-18T09:34:03;43.60;;;25.75;;
68888;SDS011;55930;47.412;8.790;2022-12-18T09:37:23;45.30;;;26.60;;
68888;SDS011;55930;47.412;8.790;2022-12-18T09:40:52;44.10;;;26.23;;
68888;SDS011;55930;47.412;8.790;2022-12-18T09:44:43;48.30;;;29.20;;
68888;SDS011;55930;47.412;8.790;2022-12-18T09:48:23;46.55;;;27.33;;
68888;SDS011;55930;47.412;8.790;2022-12-18T09:51:52;42.38;;;26.70;;
68888;SDS011;55930;47.412;8.790;2022-12-18T09:58:59;43.92;;;27.05;;
68888;SDS011;55930;47.412;8.790;2022-12-18T10:02:21;46.55;;;26.98;;
68888;SDS011;55930;47.412;8.790;2022-12-18T10:06:18;47.95;;;28.70;;
68888;SDS011;55930;47.412;8.790;2022-12-18T10:09:41;42.83;;;26.73;;
68888;SDS011;55930;47.412;8.790;2022-12-18T10:17:21;42.28;;;25.08;;
68888;SDS011;55930;47.412;8.790;2022-12-18T10:20:56;44.78;;;24.73;;
68888;SDS011;55930;47.412;8.790;2022-12-18T10:25:13;44.85;;;28.60;;
68888;SDS011;55930;47.412;8.790;2022-12-18T10:29:16;41.85;;;24.23;;
68888;SDS011;55930;47.412;8.790;2022-12-18T10:32:42;39.60;;;23.67;;
68888;SDS011;55930;47.412;8.790;2022-12-18T10:36:07;41.38;;;24.38;;
68888;SDS011;55930;47.412;8.790;2022-12-18T10:43:10;35.80;;;22.40;;
68888;SDS011;55930;47.412;8.790;2022-12-18T10:46:32;43.42;;;26.02;;
68888;SDS011;55930;47.412;8.790;2022-12-18T10:49:53;37.90;;;23.10;;
68888;SDS011;55930;47.412;8.790;2022-12-18T10:53:18;44.88;;;26.95;;
68888;SDS011;55930;47.412;8.790;2022-12-18T10:56:41;43.90;;;27.65;;
68888;SDS011;55930;47.412;8.790;2022-12-18T11:03:45;45.63;;;27.50;;
68888;SDS011;55930;47.412;8.790;2022-12-18T11:07:18;46.83;;;27.10;;
68888;SDS011;55930;47.412;8.790;2022-12-18T11:10:39;42.67;;;26.37;;
68888;SDS011;55930;47.412;8.790;2022-12-18T11:14:19;43.22;;;25.48;;
68888;SDS011;55930;47.412;8.790;2022-12-18T11:17:43;40.75;;;25.55;;
68888;SDS011;55930;47.412;8.790;2022-12-18T11:21:09;42.33;;;26.15;;
68888;SDS011;55930;47.412;8.790;2022-12-18T11:24:34;42.50;;;26.33;;
68888;SDS011;55930;47.412;8.790;2022-12-18T11:27:56;46.33;;;27.90;;
68888;SDS011;55930;47.412;8.790;2022-12-18T11:31:24;40.75;;;25.10;;
68888;SDS011;55930;47.412;8.790;2022-12-18T11:34:48;42.63;;;25.98;;
68888;SDS011;55930;47.412;8.790;2022-12-18T11:38:24;44.72;;;26.70;;
68888;SDS011;55930;47.412;8.790;2022-12-18T11:49:06;45.28;;;26.23;;
68888;SDS011;55930;47.412;8.790;2022-12-18T11:52:35;43.25;;;26.75;;
68888;SDS011;55930;47.412;8.790;2022-12-18T11:56:04;45.45;;;27.55;;
68888;SDS011;55930;47.412;8.790;2022-12-18T12:25:25;41.27;;;24.23;;
68888;SDS011;55930;47.412;8.790;2022-12-18T12:28:59;41.83;;;26.83;;
68888;SDS011;55930;47.412;8.790;2022-12-18T12:36:06;45.60;;;28.25;;
68888;SDS011;55930;47.412;8.790;2022-12-18T12:39:37;40.15;;;25.25;;
68888;SDS011;55930;47.412;8.790;2022-12-18T12:43:12;42.20;;;25.27;;
68888;SDS011;55930;47.412;8.790;2022-12-18T12:46:42;47.42;;;27.77;;
68888;SDS011;55930;47.412;8.790;2022-12-18T12:50:05;41.10;;;25.30;;
68888;SDS011;55930;47.412;8.790;2022-12-18T12:53:34;41.65;;;25.05;;
68888;SDS011;55930;47.412;8.790;2022-12-18T12:57:09;43.33;;;26.08;;
68888;SDS011;55930;47.412;8.790;2022-12-18T13:00:39;40.63;;;25.98;;
68888;SDS011;55930;47.412;8.790;2022-12-18T13:11:38;41.63;;;24.42;;
68888;SDS011;55930;47.412;8.790;2022-12-18T13:15:43;41.72;;;25.02;;
68888;SDS011;55930;47.412;8.790;2022-12-18T13:19:18;42.30;;;26.58;;
68888;SDS011;55930;47.412;8.790;2022-12-18T13:22:46;45.43;;;27.00;;
68888;SDS011;55930;47.412;8.790;2022-12-18T13:29:42;43.92;;;26.13;;
68888;SDS011;55930;47.412;8.790;2022-12-18T13:36:57;46.08;;;26.65;;
68888;SDS011;55930;47.412;8.790;2022-12-18T13:40:55;44.00;;;26.58;;
68888;SDS011;55930;47.412;8.790;2022-12-18T13:44:33;46.88;;;28.30;;
68888;SDS011;55930;47.412;8.790;2022-12-18T13:47:55;46.45;;;27.10;;
68888;SDS011;55930;47.412;8.790;2022-12-18T13:51:16;42.33;;;26.03;;
68888;SDS011;55930;47.412;8.790;2022-12-18T13:54:39;43.50;;;26.95;;
68888;SDS011;55930;47.412;8.790;2022-12-18T13:58:04;42.28;;;26.13;;
68888;SDS011;55930;47.412;8.790;2022-12-18T14:01:26;43.20;;;26.77;;
68888;SDS011;55930;47.412;8.790;2022-12-18T14:04:47;43.13;;;27.02;;
68888;SDS011;55930;47.412;8.790;2022-12-18T14:11:31;46.28;;;26.95;;
68888;SDS011;55930;47.412;8.790;2022-12-18T14:14:52;45.85;;;28.08;;
68888;SDS011;55930;47.412;8.790;2022-12-18T14:21:46;47.45;;;28.58;;
68888;SDS011;55930;47.412;8.790;2022-12-18T14:28:43;46.80;;;27.58;;
68888;SDS011;55930;47.412;8.790;2022-12-18T14:32:11;45.58;;;28.35;;
68888;SDS011;55930;47.412;8.790;2022-12-18T14:35:34;46.33;;;26.65;;
68888;SDS011;55930;47.412;8.790;2022-12-18T14:38:58;44.83;;;27.15;;
68888;SDS011;55930;47.412;8.790;2022-12-18T14:42:19;44.65;;;27.10;;
68888;SDS011;55930;47.412;8.790;2022-12-18T14:45:42;45.65;;;28.00;;
68888;SDS011;55930;47.412;8.790;2022-12-18T14:49:22;45.70;;;27.10;;
68888;SDS011;55930;47.412;8.790;2022-12-18T14:52:52;44.60;;;27.13;;
68888;SDS011;55930;47.412;8.790;2022-12-18T14:56:22;44.88;;;26.63;;
68888;SDS011;55930;47.412;8.790;2022-12-18T14:59:44;44.53;;;26.15;;
68888;SDS011;55930;47.412;8.790;2022-12-18T15:03:07;44.55;;;26.85;;
68888;SDS011;55930;47.412;8.790;2022-12-18T15:06:33;43.58;;;27.75;;
68888;SDS011;55930;47.412;8.790;2022-12-18T15:10:08;44.90;;;25.15;;
68888;SDS011;55930;47.412;8.790;2022-12-18T15:13:35;40.33;;;24.30;;
68888;SDS011;55930;47.412;8.790;2022-12-18T15:16:56;45.90;;;25.63;;
68888;SDS011;55930;47.412;8.790;2022-12-18T15:20:24;46.65;;;26.50;;
68888;SDS011;55930;47.412;8.790;2022-12-18T15:23:50;47.17;;;28.35;;
68888;SDS011;55930;47.412;8.790;2022-12-18T15:27:44;44.42;;;26.75;;
68888;SDS011;55930;47.412;8.790;2022-12-18T15:35:01;41.30;;;24.27;;
68888;SDS011;55930;47.412;8.790;2022-12-18T15:38:49;43.40;;;25.58;;
68888;SDS011;55930;47.412;8.790;2022-12-18T15:42:12;42.97;;;25.27;;
68888;SDS011;55930;47.412;8.790;2022-12-18T15:45:53;43.95;;;25.58;;
68888;SDS011;55930;47.412;8.790;2022-12-18T15:49:16;42.65;;;25.15;;
68888;SDS011;55930;47.412;8.790;2022-12-18T15:52:47;44.88;;;27.08;;
68888;SDS011;55930;47.412;8.790;2022-12-18T15:56:16;43.90;;;25.27;;
68888;SDS011;55930;47.412;8.790;2022-12-18T15:59:55;46.95;;;26.60;;
68888;SDS011;55930;47.412;8.790;2022-12-18T16:03:18;44.60;;;25.77;;
68888;SDS011;55930;47.412;8.790;2022-12-18T16:07:05;44.70;;;26.73;;
68888;SDS011;55930;47.412;8.790;2022-12-18T16:10:32;46.70;;;26.70;;
68888;SDS011;55930;47.412;8.790;2022-12-18T16:13:55;47.38;;;27.85;;
68888;SDS011;55930;47.412;8.790;2022-12-18T16:17:41;52.15;;;29.77;;
68888;SDS011;55930;47.412;8.790;2022-12-18T16:21:10;45.17;;;25.63;;
68888;SDS011;55930;47.412;8.790;2022-12-18T16:24:31;47.08;;;27.88;;
68888;SDS011;55930;47.412;8.790;2022-12-18T16:27:54;49.15;;;26.55;;
68888;SDS011;55930;47.412;8.790;2022-12-18T16:31:17;43.97;;;25.77;;
68888;SDS011;55930;47.412;8.790;2022-12-18T16:34:40;48.40;;;26.43;;
68888;SDS011;55930;47.412;8.790;2022-12-18T16:38:02;44.08;;;25.83;;
68888;SDS011;55930;47.412;8.790;2022-12-18T16:41:22;48.30;;;26.53;;
68888;SDS011;55930;47.412;8.790;2022-12-18T16:44:55;45.00;;;25.65;;
68888;SDS011;55930;47.412;8.790;2022-12-18T16:48:15;46.03;;;27.63;;
68888;SDS011;55930;47.412;8.790;2022-12-18T16:51:36;48.07;;;26.57;;
68888;SDS011;55930;47.412;8.790;2022-12-18T16:54:56;45.83;;;26.43;;
68888;SDS011;55930;47.412;8.790;2022-12-18T16:58:16;47.40;;;26.70;;
68888;SDS011;55930;47.412;8.790;2022-12-18T17:01:37;42.73;;;24.37;;
68888;SDS011;55930;47.412;8.790;2022-12-18T17:05:00;49.55;;;27.70;;
68888;SDS011;55930;47.412;8.790;2022-12-18T17:08:21;51.57;;;26.83;;
68888;SDS011;55930;47.412;8.790;2022-12-18T17:11:41;52.27;;;29.60;;
68888;SDS011;55930;47.412;8.790;2022-12-18T17:15:03;48.10;;;26.80;;
68888;SDS011;55930;47.412;8.790;2022-12-18T17:18:23;35.53;;;19.27;;
68888;SDS011;55930;47.412;8.790;2022-12-18T17:21:49;53.85;;;29.30;;
68888;SDS011;55930;47.412;8.790;2022-12-18T17:25:12;47.58;;;26.33;;
68888;SDS011;55930;47.412;8.790;2022-12-18T17:28:33;51.60;;;26.77;;
68888;SDS011;55930;47.412;8.790;2022-12-18T17:31:54;40.60;;;22.55;;
68888;SDS011;55930;47.412;8.790;2022-12-18T17:35:14;48.50;;;24.87;;
68888;SDS011;55930;47.412;8.790;2022-12-18T17:38:35;45.97;;;25.50;;
68888;SDS011;55930;47.412;8.790;2022-12-18T17:41:56;48.00;;;26.80;;
68888;SDS011;55930;47.412;8.790;2022-12-18T17:45:16;52.27;;;28.03;;
68888;SDS011;55930;47.412;8.790;2022-12-18T17:48:39;51.03;;;28.65;;
68888;SDS011;55930;47.412;8.790;2022-12-18T17:52:00;60.92;;;34.47;;
68888;SDS011;55930;47.412;8.790;2022-12-18T17:55:21;57.37;;;31.67;;
68888;SDS011;55930;47.412;8.790;2022-12-18T17:58:42;53.38;;;30.30;;
68888;SDS011;55930;47.412;8.790;2022-12-18T18:02:02;51.43;;;26.77;;
68888;SDS011;55930;47.412;8.790;2022-12-18T18:05:23;55.87;;;28.50;;
68888;SDS011;55930;47.412;8.790;2022-12-18T18:08:43;55.87;;;28.50;;
68888;SDS011;55930;47.412;8.790;2022-12-18T18:12:09;52.17;;;27.35;;
68888;SDS011;55930;47.412;8.790;2022-12-18T18:16:08;54.17;;;27.63;;
68888;SDS011;55930;47.412;8.790;2022-12-18T18:19:29;54.17;;;28.52;;
68888;SDS011;55930;47.412;8.790;2022-12-18T18:22:51;50.42;;;27.02;;
68888;SDS011;55930;47.412;8.790;2022-12-18T18:26:11;50.57;;;29.07;;
68888;SDS011;55930;47.412;8.790;2022-12-18T18:29:32;54.63;;;27.23;;
68888;SDS011;55930;47.412;8.790;2022-12-18T18:32:52;53.57;;;29.60;;
68888;SDS011;55930;47.412;8.790;2022-12-18T18:36:13;50.53;;;28.27;;
68888;SDS011;55930;47.412;8.790;2022-12-18T18:39:33;56.13;;;29.47;;
68888;SDS011;55930;47.412;8.790;2022-12-18T18:42:54;44.75;;;26.13;;
68888;SDS011;55930;47.412;8.790;2022-12-18T18:46:53;60.72;;;29.42;;
68888;SDS011;55930;47.412;8.790;2022-12-18T18:50:20;60.42;;;31.33;;
68888;SDS011;55930;47.412;8.790;2022-12-18T18:53:42;61.03;;;33.03;;
68888;SDS011;55930;47.412;8.790;2022-12-18T18:57:24;61.50;;;32.83;;
68888;SDS011;55930;47.412;8.790;2022-12-18T19:00:52;63.73;;;30.70;;
68888;SDS011;55930;47.412;8.790;2022-12-18T19:04:20;56.53;;;28.55;;
68888;SDS011;55930;47.412;8.790;2022-12-18T19:07:43;64.05;;;33.10;;
68888;SDS011;55930;47.412;8.790;2022-12-18T19:11:05;54.97;;;28.03;;
68888;SDS011;55930;47.412;8.790;2022-12-18T19:14:50;60.33;;;30.60;;
68888;SDS011;55930;47.412;8.790;2022-12-18T19:18:13;60.25;;;30.20;;
68888;SDS011;55930;47.412;8.790;2022-12-18T19:21:51;54.25;;;29.75;;
68888;SDS011;55930;47.412;8.790;2022-12-18T19:25:34;60.67;;;29.70;;
68888;SDS011;55930;47.412;8.790;2022-12-18T19:29:01;54.08;;;27.23;;
68888;SDS011;55930;47.412;8.790;2022-12-18T19:32:26;75.75;;;35.67;;
68888;SDS011;55930;47.412;8.790;2022-12-18T19:35:47;61.60;;;32.43;;
68888;SDS011;55930;47.412;8.790;2022-12-18T19:39:11;65.53;;;31.20;;
68888;SDS011;55930;47.412;8.790;2022-12-18T19:42:33;57.78;;;31.20;;
68888;SDS011;55930;47.412;8.790;2022-12-18T19:45:54;54.93;;;28.03;;
68888;SDS011;55930;47.412;8.790;2022-12-18T19:49:15;46.27;;;23.73;;
68888;SDS011;55930;47.412;8.790;2022-12-18T19:52:35;58.47;;;29.67;;
68888;SDS011;55930;47.412;8.790;2022-12-18T19:55:55;59.40;;;30.07;;
68888;SDS011;55930;47.412;8.790;2022-12-18T19:59:16;69.00;;;33.80;;
68888;SDS011;55930;47.412;8.790;2022-12-18T20:02:36;68.63;;;33.37;;
68888;SDS011;55930;47.412;8.790;2022-12-18T20:09:49;66.68;;;33.63;;
68888;SDS011;55930;47.412;8.790;2022-12-18T20:13:20;61.80;;;30.88;;
68888;SDS011;55930;47.412;8.790;2022-12-18T20:16:43;65.70;;;32.85;;
68888;SDS011;55930;47.412;8.790;2022-12-18T20:20:04;60.07;;;31.57;;
68888;SDS011;55930;47.412;8.790;2022-12-18T20:26:45;63.30;;;30.38;;
68888;SDS011;55930;47.412;8.790;2022-12-18T20:30:06;61.27;;;30.10;;
68888;SDS011;55930;47.412;8.790;2022-12-18T20:33:27;61.42;;;30.38;;
68888;SDS011;55930;47.412;8.790;2022-12-18T20:36:48;66.07;;;34.60;;
68888;SDS011;55930;47.412;8.790;2022-12-18T20:40:09;58.20;;;33.07;;
68888;SDS011;55930;47.412;8.790;2022-12-18T20:43:29;63.87;;;30.97;;
68888;SDS011;55930;47.412;8.790;2022-12-18T20:46:54;63.17;;;30.67;;
68888;SDS011;55930;47.412;8.790;2022-12-18T20:50:17;57.50;;;31.40;;
68888;SDS011;55930;47.412;8.790;2022-12-18T20:53:55;63.85;;;33.00;;
68888;SDS011;55930;47.412;8.790;2022-12-18T20:57:19;53.28;;;28.48;;
68888;SDS011;55930;47.412;8.790;2022-12-18T21:00:42;61.80;;;31.75;;
68888;SDS011;55930;47.412;8.790;2022-12-18T21:04:02;56.37;;;28.43;;
68888;SDS011;55930;47.412;8.790;2022-12-18T21:07:23;44.85;;;23.10;;
68888;SDS011;55930;47.412;8.790;2022-12-18T21:10:52;60.50;;;29.75;;
68888;SDS011;55930;47.412;8.790;2022-12-18T21:17:45;53.50;;;27.25;;
68888;SDS011;55930;47.412;8.790;2022-12-18T21:21:15;60.50;;;29.70;;
68888;SDS011;55930;47.412;8.790;2022-12-18T21:24:35;56.03;;;29.33;;
68888;SDS011;55930;47.412;8.790;2022-12-18T21:27:56;59.47;;;28.53;;
68888;SDS011;55930;47.412;8.790;2022-12-18T21:31:16;56.53;;;28.57;;
68888;SDS011;55930;47.412;8.790;2022-12-18T21:34:39;52.88;;;27.02;;
68888;SDS011;55930;47.412;8.790;2022-12-18T21:37:59;56.10;;;28.77;;
68888;SDS011;55930;47.412;8.790;2022-12-18T21:41:20;54.37;;;27.23;;
68888;SDS011;55930;47.412;8.790;2022-12-18T21:45:00;55.72;;;28.17;;
68888;SDS011;55930;47.412;8.790;2022-12-18T21:48:20;60.17;;;29.20;;
68888;SDS011;55930;47.412;8.790;2022-12-18T21:51:41;68.03;;;32.40;;
68888;SDS011;55930;47.412;8.790;2022-12-18T21:55:06;52.70;;;27.98;;
68888;SDS011;55930;47.412;8.790;2022-12-18T21:58:27;53.53;;;28.10;;
68888;SDS011;55930;47.412;8.790;2022-12-18T22:01:53;59.08;;;29.80;;
68888;SDS011;55930;47.412;8.790;2022-12-18T22:05:23;53.85;;;28.40;;